Time,TemperatureF,DewpointF,PressureIn,WindDirection,WindDirectionDegrees,WindSpeedMPH,WindSpeedGustMPH,Humidity,HourlyPrecipIn,Conditions,Clouds,dailyrainin,SoftwareType,DateUTC
2013-06-18 00:00:00,56.9,53.7,29.99,ESE,107,0.0,0.0,89,0.00,,,0.00,Wunderground v.1.15,2013-06-18 07:00:00,
2013-06-18 00:05:00,56.8,53.6,29.99,ESE,107,0.0,0.0,89,0.00,,,0.00,Wunderground v.1.15,2013-06-18 07:05:00,
2013-06-18 00:10:00,56.8,53.6,29.99,ESE,107,0.0,0.0,89,0.00,,,0.00,Wunderground v.1.15,2013-06-18 07:10:00,
2013-06-18 00:16:00,56.8,54.5,29.99,ESE,107,0.0,0.0,92,0.00,,,0.00,Wunderground v.1.15,2013-06-18 07:16:00,
2013-06-18 00:21:00,56.8,53.6,29.99,ESE,107,0.0,0.0,89,0.00,,,0.00,Wunderground v.1.15,2013-06-18 07:21:00,
2013-06-18 00:26:00,56.8,53.6,29.99,ESE,107,0.0,0.0,89,0.00,,,0.00,Wunderground v.1.15,2013-06-18 07:26:00,
2013-06-18 00:32:00,56.7,53.5,29.99,ESE,107,0.0,0.0,89,0.00,,,0.00,Wunderground v.1.15,2013-06-18 07:32:00,
2013-06-18 00:38:00,56.7,53.5,29.99,ESE,107,0.0,0.0,89,0.00,,,0.00,Wunderground v.1.15,2013-06-18 07:38:00,
2013-06-18 00:44:00,56.7,53.5,29.99,ESE,107,0.0,0.0,89,0.00,,,0.00,Wunderground v.1.15,2013-06-18 07:44:00,
2013-06-18 00:50:00,56.7,53.5,29.99,ESE,107,0.0,0.0,89,0.00,,,0.00,Wunderground v.1.15,2013-06-18 07:50:00,
2013-06-18 00:55:00,56.7,53.5,29.99,ESE,107,0.0,0.0,89,0.00,,,0.00,Wunderground v.1.15,2013-06-18 07:55:00,
2013-06-18 01:00:00,56.7,53.5,29.99,ESE,107,0.0,0.0,89,0.00,,,0.00,Wunderground v.1.15,2013-06-18 08:00:00,
2013-06-18 01:05:00,56.7,53.5,29.99,ESE,107,0.0,0.0,89,0.00,,,0.00,Wunderground v.1.15,2013-06-18 08:05:00,
2013-06-18 01:10:00,56.8,53.6,29.99,ESE,107,0.0,0.0,89,0.00,,,0.00,Wunderground v.1.15,2013-06-18 08:10:00,
2013-06-18 01:16:00,56.8,53.6,29.99,ESE,107,0.0,0.0,89,0.00,,,0.00,Wunderground v.1.15,2013-06-18 08:16:00,
2013-06-18 01:22:00,56.8,53.6,29.99,ESE,107,0.0,0.0,89,0.00,,,0.00,Wunderground v.1.15,2013-06-18 08:22:00,
2013-06-18 01:27:00,56.8,53.3,29.98,ESE,107,0.0,0.0,88,0.00,,,0.00,Wunderground v.1.15,2013-06-18 08:27:00,
2013-06-18 01:33:00,56.8,53.3,29.98,ESE,107,0.0,0.0,88,0.00,,,0.00,Wunderground v.1.15,2013-06-18 08:33:00,
2013-06-18 01:38:00,56.8,53.3,29.98,ESE,107,0.0,0.0,88,0.00,,,0.00,Wunderground v.1.15,2013-06-18 08:38:00,
2013-06-18 01:44:00,56.9,53.7,29.98,ESE,107,0.0,0.0,89,0.00,,,0.00,Wunderground v.1.15,2013-06-18 08:44:00,
2013-06-18 01:49:00,56.9,53.7,29.98,ESE,107,0.0,0.0,89,0.00,,,0.00,Wunderground v.1.15,2013-06-18 08:49:00,
2013-06-18 01:55:00,56.9,53.7,29.98,ESE,107,0.0,0.0,89,0.00,,,0.00,Wunderground v.1.15,2013-06-18 08:55:00,
2013-06-18 02:00:00,56.9,53.7,29.98,ESE,107,0.0,0.0,89,0.00,,,0.00,Wunderground v.1.15,2013-06-18 09:00:00,
2013-06-18 02:05:00,56.9,53.7,29.98,ESE,107,0.0,0.0,89,0.00,,,0.00,Wunderground v.1.15,2013-06-18 09:05:00,
2013-06-18 02:11:00,57.0,53.8,29.98,ESE,107,0.0,0.0,89,0.00,,,0.00,Wunderground v.1.15,2013-06-18 09:11:00,
2013-06-18 02:16:00,56.9,53.7,29.98,ESE,107,0.0,0.0,89,0.00,,,0.00,Wunderground v.1.15,2013-06-18 09:16:00,
2013-06-18 02:22:00,56.9,53.7,29.98,ESE,107,0.0,0.0,89,0.00,,,0.00,Wunderground v.1.15,2013-06-18 09:22:00,
2013-06-18 02:27:00,56.9,53.7,29.98,ESE,107,0.0,0.0,89,0.00,,,0.00,Wunderground v.1.15,2013-06-18 09:27:00,
2013-06-18 02:33:00,56.8,53.6,29.98,ESE,107,0.0,0.0,89,0.00,,,0.00,Wunderground v.1.15,2013-06-18 09:33:00,
2013-06-18 02:38:00,56.7,53.2,29.98,ESE,107,0.0,0.0,88,0.00,,,0.00,Wunderground v.1.15,2013-06-18 09:38:00,
2013-06-18 02:44:00,56.5,53.0,29.98,ESE,107,0.0,0.0,88,0.00,,,0.00,Wunderground v.1.15,2013-06-18 09:44:00,
2013-06-18 02:49:00,56.3,52.8,29.98,ESE,107,0.0,0.0,88,0.00,,,0.00,Wunderground v.1.15,2013-06-18 09:49:00,
2013-06-18 02:55:00,56.1,52.6,29.98,ESE,108,0.0,4.0,88,0.00,,,0.00,Wunderground v.1.15,2013-06-18 09:55:00,
2013-06-18 03:01:00,56.0,52.8,29.98,ESE,108,0.0,4.0,89,0.00,,,0.00,Wunderground v.1.15,2013-06-18 10:01:00,
2013-06-18 03:08:00,55.9,52.7,29.98,ESE,108,0.0,0.0,89,0.00,,,0.00,Wunderground v.1.15,2013-06-18 10:08:00,
2013-06-18 03:13:00,55.9,52.4,29.98,ESE,108,0.0,0.0,88,0.00,,,0.00,Wunderground v.1.15,2013-06-18 10:13:00,
2013-06-18 03:18:00,55.9,52.7,29.98,ESE,108,0.0,0.0,89,0.00,,,0.00,Wunderground v.1.15,2013-06-18 10:18:00,
2013-06-18 03:24:00,56.0,53.1,29.98,ESE,108,0.0,0.0,90,0.00,,,0.00,Wunderground v.1.15,2013-06-18 10:24:00,
2013-06-18 03:30:00,56.0,52.8,29.98,ESE,108,0.0,0.0,89,0.00,,,0.00,Wunderground v.1.15,2013-06-18 10:30:00,
2013-06-18 03:35:00,56.0,52.8,29.98,ESE,108,0.0,0.0,89,0.00,,,0.00,Wunderground v.1.15,2013-06-18 10:35:00,
2013-06-18 03:41:00,56.0,52.8,29.98,ESE,108,0.0,0.0,89,0.00,,,0.00,Wunderground v.1.15,2013-06-18 10:41:00,
2013-06-18 03:46:00,56.0,52.8,29.98,ESE,112,0.0,0.0,89,0.00,,,0.00,Wunderground v.1.15,2013-06-18 10:46:00,
2013-06-18 03:52:00,56.0,52.8,29.98,ESE,112,0.0,4.0,89,0.00,,,0.00,Wunderground v.1.15,2013-06-18 10:52:00,
2013-06-18 03:58:00,56.0,52.8,29.98,ESE,113,0.0,1.0,89,0.00,,,0.00,Wunderground v.1.15,2013-06-18 10:58:00,
2013-06-18 04:03:00,56.0,52.8,29.98,ESE,113,0.0,0.0,89,0.00,,,0.00,Wunderground v.1.15,2013-06-18 11:03:00,
2013-06-18 04:09:00,56.0,52.8,29.98,ESE,113,0.0,1.0,89,0.00,,,0.00,Wunderground v.1.15,2013-06-18 11:09:00,
2013-06-18 04:14:00,56.0,52.8,29.98,ESE,113,0.0,0.0,89,0.00,,,0.00,Wunderground v.1.15,2013-06-18 11:14:00,
2013-06-18 04:20:00,56.0,52.8,29.98,ESE,113,0.0,0.0,89,0.00,,,0.00,Wunderground v.1.15,2013-06-18 11:20:00,
2013-06-18 04:25:00,56.0,52.8,29.98,ESE,113,0.0,0.0,89,0.00,,,0.00,Wunderground v.1.15,2013-06-18 11:25:00,
2013-06-18 04:31:00,56.0,53.1,29.98,ESE,113,0.0,0.0,90,0.00,,,0.00,Wunderground v.1.15,2013-06-18 11:31:00,
2013-06-18 04:36:00,56.0,53.1,29.98,ESE,113,0.0,0.0,90,0.00,,,0.00,Wunderground v.1.15,2013-06-18 11:36:00,
2013-06-18 04:42:00,56.0,53.4,29.98,West,279,2.0,2.0,91,0.00,,,0.01,Wunderground v.1.15,2013-06-18 11:42:00,
2013-06-18 04:48:00,56.1,53.5,29.98,West,279,2.0,3.0,91,0.00,,,0.01,Wunderground v.1.15,2013-06-18 11:48:00,
2013-06-18 04:53:00,56.0,53.1,29.98,West,279,0.0,1.0,90,0.00,,,0.01,Wunderground v.1.15,2013-06-18 11:53:00,
2013-06-18 04:59:00,55.9,53.0,29.98,West,279,0.0,1.0,90,0.00,,,0.01,Wunderground v.1.15,2013-06-18 11:59:00,
2013-06-18 05:04:00,55.8,52.9,29.98,West,279,0.0,0.0,90,0.00,,,0.01,Wunderground v.1.15,2013-06-18 12:04:00,
2013-06-18 05:10:00,55.7,52.8,29.98,West,279,0.0,0.0,90,0.00,,,0.01,Wunderground v.1.15,2013-06-18 12:10:00,
2013-06-18 05:15:00,55.6,53.0,29.98,NNW,338,0.0,0.0,91,0.00,,,0.01,Wunderground v.1.15,2013-06-18 12:15:00,
2013-06-18 05:21:00,55.5,52.9,29.98,NNW,338,0.0,0.0,91,0.00,,,0.01,Wunderground v.1.15,2013-06-18 12:21:00,
2013-06-18 05:26:00,55.5,53.2,29.98,NNW,338,0.0,0.0,92,0.00,,,0.01,Wunderground v.1.15,2013-06-18 12:26:00,
2013-06-18 05:32:00,55.4,53.1,29.98,NNW,338,0.0,0.0,92,0.00,,,0.01,Wunderground v.1.15,2013-06-18 12:32:00,
2013-06-18 05:37:00,55.5,53.8,29.98,NNW,338,0.0,0.0,94,0.00,,,0.01,Wunderground v.1.15,2013-06-18 12:37:00,
2013-06-18 05:42:00,55.7,54.0,29.98,NNW,338,0.0,0.0,94,0.00,,,0.01,Wunderground v.1.15,2013-06-18 12:42:00,
2013-06-18 05:48:00,55.7,54.0,29.98,NNW,338,0.0,0.0,94,0.00,,,0.01,Wunderground v.1.15,2013-06-18 12:48:00,
2013-06-18 05:54:00,55.6,53.9,29.98,NNW,338,0.0,0.0,94,0.00,,,0.01,Wunderground v.1.15,2013-06-18 12:54:00,
2013-06-18 06:00:00,55.6,53.9,29.98,NNW,338,0.0,0.0,94,0.00,,,0.01,Wunderground v.1.15,2013-06-18 13:00:00,
2013-06-18 06:05:00,55.6,53.9,29.98,NNW,338,0.0,0.0,94,0.00,,,0.01,Wunderground v.1.15,2013-06-18 13:05:00,
2013-06-18 06:11:00,55.6,53.6,29.98,NNW,338,0.0,0.0,93,0.00,,,0.01,Wunderground v.1.15,2013-06-18 13:11:00,
2013-06-18 06:16:00,55.6,53.9,29.98,NNW,338,0.0,0.0,94,0.00,,,0.01,Wunderground v.1.15,2013-06-18 13:16:00,
2013-06-18 06:22:00,55.6,53.9,29.98,NNW,338,0.0,0.0,94,0.00,,,0.01,Wunderground v.1.15,2013-06-18 13:22:00,
2013-06-18 06:27:00,55.8,54.1,29.98,NNW,336,0.0,2.0,94,0.00,,,0.01,Wunderground v.1.15,2013-06-18 13:27:00,
2013-06-18 06:33:00,56.1,54.7,29.98,NNW,327,1.0,2.0,95,0.00,,,0.01,Wunderground v.1.15,2013-06-18 13:33:00,
2013-06-18 06:39:00,56.4,54.7,29.98,NW,304,1.0,3.0,94,0.00,,,0.01,Wunderground v.1.15,2013-06-18 13:39:00,
2013-06-18 06:45:00,56.6,54.9,29.98,NW,304,0.0,1.0,94,0.00,,,0.01,Wunderground v.1.15,2013-06-18 13:45:00,
2013-06-18 06:50:00,57.0,55.3,29.98,WNW,290,1.0,4.0,94,0.00,,,0.01,Wunderground v.1.15,2013-06-18 13:50:00,
2013-06-18 06:55:00,57.2,55.2,29.98,West,277,1.0,4.0,93,0.00,,,0.01,Wunderground v.1.15,2013-06-18 13:55:00,
2013-06-18 07:01:00,57.3,55.0,29.98,West,279,1.0,4.0,92,0.00,,,0.02,Wunderground v.1.15,2013-06-18 14:01:00,
2013-06-18 07:07:00,57.4,55.1,29.98,West,279,0.0,1.0,92,0.00,,,0.02,Wunderground v.1.15,2013-06-18 14:07:00,
2013-06-18 07:12:00,57.5,55.2,29.98,West,279,0.0,0.0,92,0.00,,,0.02,Wunderground v.1.15,2013-06-18 14:12:00,
2013-06-18 07:18:00,57.6,55.3,29.98,West,279,0.0,1.0,92,0.00,,,0.02,Wunderground v.1.15,2013-06-18 14:18:00,
2013-06-18 07:23:00,57.7,55.4,29.98,West,279,0.0,1.0,92,0.00,,,0.02,Wunderground v.1.15,2013-06-18 14:23:00,
2013-06-18 07:29:00,57.6,55.3,29.98,West,279,0.0,1.0,92,0.00,,,0.02,Wunderground v.1.15,2013-06-18 14:29:00,
2013-06-18 07:34:00,57.6,55.3,29.98,SSW,211,0.0,0.0,92,0.00,,,0.02,Wunderground v.1.15,2013-06-18 14:34:00,
2013-06-18 07:40:00,57.5,54.9,29.98,SSW,211,0.0,0.0,91,0.00,,,0.02,Wunderground v.1.15,2013-06-18 14:40:00,
2013-06-18 07:46:00,57.3,54.7,29.98,SSW,211,0.0,0.0,91,0.00,,,0.02,Wunderground v.1.15,2013-06-18 14:46:00,
2013-06-18 07:51:00,57.4,55.1,29.98,SSW,211,0.0,0.0,92,0.00,,,0.02,Wunderground v.1.15,2013-06-18 14:51:00,
2013-06-18 07:57:00,57.6,55.6,29.98,SSW,213,1.0,5.0,93,0.00,,,0.02,Wunderground v.1.15,2013-06-18 14:57:00,
2013-06-18 08:03:00,57.7,55.7,29.98,SW,223,2.0,5.0,93,0.00,,,0.02,Wunderground v.1.15,2013-06-18 15:03:00,
2013-06-18 08:08:00,57.7,55.4,29.98,SW,224,2.0,6.0,92,0.00,,,0.02,Wunderground v.1.15,2013-06-18 15:08:00,
2013-06-18 08:13:00,57.8,55.2,29.98,SW,224,2.0,2.0,91,0.00,,,0.02,Wunderground v.1.15,2013-06-18 15:13:00,
2013-06-18 08:18:00,57.9,55.3,29.97,SW,224,1.0,2.0,91,0.00,,,0.02,Wunderground v.1.15,2013-06-18 15:18:00,
2013-06-18 08:24:00,58.0,55.1,29.98,SW,224,0.0,3.0,90,0.00,,,0.02,Wunderground v.1.15,2013-06-18 15:24:00,
2013-06-18 08:29:00,58.1,55.2,29.98,SW,224,1.0,3.0,90,0.00,,,0.02,Wunderground v.1.15,2013-06-18 15:29:00,
2013-06-18 08:34:00,58.2,55.3,29.98,SW,224,0.0,1.0,90,0.00,,,0.02,Wunderground v.1.15,2013-06-18 15:34:00,
2013-06-18 08:39:00,58.4,54.9,29.98,SW,224,0.0,1.0,88,0.00,,,0.02,Wunderground v.1.15,2013-06-18 15:39:00,
2013-06-18 08:45:00,58.6,55.1,29.98,WNW,291,0.0,0.0,88,0.00,,,0.02,Wunderground v.1.15,2013-06-18 15:45:00,
2013-06-18 08:50:00,58.8,55.3,29.98,WNW,291,0.0,0.0,88,0.00,,,0.02,Wunderground v.1.15,2013-06-18 15:50:00,
2013-06-18 08:56:00,59.0,55.4,29.97,WNW,291,0.0,0.0,88,0.00,,,0.02,Wunderground v.1.15,2013-06-18 15:56:00,
2013-06-18 09:01:00,59.3,55.4,29.97,WNW,291,0.0,1.0,87,0.00,,,0.02,Wunderground v.1.15,2013-06-18 16:01:00,
2013-06-18 09:07:00,59.4,54.9,29.98,WSW,240,1.0,3.0,85,0.00,,,0.02,Wunderground v.1.15,2013-06-18 16:07:00,
2013-06-18 09:12:00,59.4,54.9,29.98,WSW,240,1.0,3.0,85,0.00,,,0.02,Wunderground v.1.15,2013-06-18 16:12:00,
2013-06-18 09:17:00,59.6,55.4,29.97,WSW,240,0.0,1.0,86,0.00,,,0.02,Wunderground v.1.15,2013-06-18 16:17:00,
2013-06-18 09:23:00,59.9,55.7,29.97,WSW,240,0.0,0.0,86,0.00,,,0.02,Wunderground v.1.15,2013-06-18 16:23:00,
2013-06-18 09:29:00,60.0,54.8,29.97,WSW,240,0.0,0.0,83,0.00,,,0.02,Wunderground v.1.15,2013-06-18 16:29:00,
2013-06-18 09:34:00,60.2,55.0,29.97,WSW,240,0.0,0.0,83,0.00,,,0.02,Wunderground v.1.15,2013-06-18 16:34:00,
2013-06-18 09:40:00,60.4,55.5,29.97,WSW,240,0.0,0.0,84,0.00,,,0.02,Wunderground v.1.15,2013-06-18 16:40:00,
2013-06-18 09:45:00,60.6,52.3,29.97,WSW,240,0.0,0.0,74,0.00,,,0.02,Wunderground v.1.15,2013-06-18 16:45:00,
2013-06-18 09:51:00,61.3,54.4,29.97,WSW,240,0.0,0.0,78,0.00,,,0.02,Wunderground v.1.15,2013-06-18 16:51:00,
2013-06-18 09:57:00,62.6,56.3,29.96,NNE,32,1.0,2.0,80,0.00,,,0.02,Wunderground v.1.15,2013-06-18 16:57:00,
2013-06-18 10:03:00,63.4,55.3,29.96,NNE,31,1.0,1.0,75,0.00,,,0.02,Wunderground v.1.15,2013-06-18 17:03:00,
2013-06-18 10:08:00,63.6,55.9,29.96,NNW,346,0.0,1.0,76,0.00,,,0.02,Wunderground v.1.15,2013-06-18 17:08:00,
2013-06-18 10:14:00,63.7,54.9,29.96,WSW,237,1.0,4.0,73,0.00,,,0.02,Wunderground v.1.15,2013-06-18 17:14:00,
2013-06-18 10:19:00,63.9,56.2,29.96,WSW,245,2.0,4.0,76,0.00,,,0.02,Wunderground v.1.15,2013-06-18 17:19:00,
2013-06-18 10:24:00,64.2,55.4,29.96,WSW,245,1.0,2.0,73,0.00,,,0.02,Wunderground v.1.15,2013-06-18 17:24:00,
2013-06-18 10:30:00,64.8,55.9,29.96,WNW,303,1.0,2.0,73,0.00,,,0.02,Wunderground v.1.15,2013-06-18 17:30:00,
2013-06-18 10:35:00,65.1,54.7,29.96,West,269,1.0,2.0,69,0.00,,,0.02,Wunderground v.1.15,2013-06-18 17:35:00,
2013-06-18 10:40:00,65.5,55.1,29.96,West,269,0.0,2.0,69,0.00,,,0.02,Wunderground v.1.15,2013-06-18 17:40:00,
2013-06-18 10:46:00,66.3,55.8,29.96,SW,222,1.0,2.0,69,0.00,,,0.02,Wunderground v.1.15,2013-06-18 17:46:00,
2013-06-18 10:51:00,66.2,53.7,29.96,SSE,149,1.0,5.0,64,0.00,,,0.02,Wunderground v.1.15,2013-06-18 17:51:00,
2013-06-18 10:56:00,66.0,53.9,29.96,WNW,292,3.0,7.0,65,0.00,,,0.02,Wunderground v.1.15,2013-06-18 17:56:00,
2013-06-18 11:03:00,65.5,54.7,29.96,WSW,254,4.0,5.0,68,0.00,,,0.02,Wunderground v.1.15,2013-06-18 18:03:00,
2013-06-18 11:08:00,65.2,54.8,29.95,West,269,3.0,5.0,69,0.00,,,0.02,Wunderground v.1.15,2013-06-18 18:08:00,
2013-06-18 11:13:00,65.0,55.0,29.96,WSW,242,2.0,2.0,70,0.00,,,0.02,Wunderground v.1.15,2013-06-18 18:13:00,
2013-06-18 11:19:00,64.7,54.3,29.95,WSW,240,2.0,3.0,69,0.00,,,0.02,Wunderground v.1.15,2013-06-18 18:19:00,
2013-06-18 11:24:00,64.7,53.5,29.95,WSW,241,1.0,1.0,67,0.00,,,0.02,Wunderground v.1.15,2013-06-18 18:24:00,
2013-06-18 11:29:00,64.8,52.8,29.95,WSW,241,0.0,1.0,65,0.00,,,0.02,Wunderground v.1.15,2013-06-18 18:29:00,
2013-06-18 11:35:00,65.3,53.6,29.95,West,263,0.0,4.0,66,0.00,,,0.02,Wunderground v.1.15,2013-06-18 18:35:00,
2013-06-18 11:41:00,65.6,52.7,29.95,West,280,1.0,4.0,63,0.00,,,0.02,Wunderground v.1.15,2013-06-18 18:41:00,
2013-06-18 11:46:00,65.9,55.0,29.95,NW,309,1.0,3.0,68,0.00,,,0.02,Wunderground v.1.15,2013-06-18 18:46:00,
2013-06-18 11:51:00,66.5,55.2,29.95,WNW,286,1.0,3.0,67,0.00,,,0.02,Wunderground v.1.15,2013-06-18 18:51:00,
2013-06-18 11:57:00,66.6,54.9,29.95,NW,325,1.0,1.0,66,0.00,,,0.02,Wunderground v.1.15,2013-06-18 18:57:00,
2013-06-18 12:03:00,66.7,54.1,29.95,NW,320,1.0,1.0,64,0.00,,,0.02,Wunderground v.1.15,2013-06-18 19:03:00,
2013-06-18 12:08:00,66.8,53.8,29.95,ENE,72,1.0,2.0,63,0.00,,,0.02,Wunderground v.1.15,2013-06-18 19:08:00,
2013-06-18 12:14:00,67.7,55.9,29.95,NE,43,2.0,2.0,66,0.00,,,0.02,Wunderground v.1.15,2013-06-18 19:14:00,
2013-06-18 12:19:00,68.0,53.1,29.95,ENE,75,1.0,3.0,59,0.00,,,0.02,Wunderground v.1.15,2013-06-18 19:19:00,
2013-06-18 12:25:00,68.8,54.3,29.94,NNE,28,1.0,2.0,60,0.00,,,0.02,Wunderground v.1.15,2013-06-18 19:25:00,
2013-06-18 12:30:00,69.4,53.0,29.94,North,5,1.0,2.0,56,0.00,,,0.02,Wunderground v.1.15,2013-06-18 19:30:00,
2013-06-18 12:36:00,69.9,54.0,29.94,SSW,200,1.0,5.0,57,0.00,,,0.02,Wunderground v.1.15,2013-06-18 19:36:00,
2013-06-18 12:41:00,70.7,57.5,29.94,SW,215,1.0,5.0,63,0.00,,,0.02,Wunderground v.1.15,2013-06-18 19:41:00,
2013-06-18 12:46:00,71.2,53.7,29.94,WNW,282,1.0,4.0,54,0.00,,,0.02,Wunderground v.1.15,2013-06-18 19:46:00,
2013-06-18 12:52:00,72.0,56.4,29.94,ESE,112,1.0,5.0,58,0.00,,,0.02,Wunderground v.1.15,2013-06-18 19:52:00,
2013-06-18 12:57:00,71.5,54.5,29.93,East,85,2.0,6.0,55,0.00,,,0.02,Wunderground v.1.15,2013-06-18 19:57:00,
2013-06-18 13:03:00,71.3,55.3,29.94,SW,232,2.0,2.0,57,0.00,,,0.02,Wunderground v.1.15,2013-06-18 20:03:00,
2013-06-18 13:07:00,71.2,54.7,29.93,WSW,238,2.0,3.0,56,0.00,,,0.02,Wunderground v.1.15,2013-06-18 20:07:00,
2013-06-18 13:13:00,70.3,52.9,29.93,NW,312,2.0,5.0,54,0.00,,,0.02,Wunderground v.1.15,2013-06-18 20:13:00,
2013-06-18 13:19:00,69.9,53.5,29.93,NNW,335,2.0,7.0,56,0.00,,,0.02,Wunderground v.1.15,2013-06-18 20:19:00,
2013-06-18 13:25:00,69.8,52.4,29.93,NW,321,2.0,2.0,54,0.00,,,0.02,Wunderground v.1.15,2013-06-18 20:25:00,
2013-06-18 13:31:00,69.9,52.5,29.93,NW,322,1.0,2.0,54,0.00,,,0.02,Wunderground v.1.15,2013-06-18 20:31:00,
2013-06-18 13:36:00,69.9,52.0,29.93,NNW,343,0.0,2.0,53,0.00,,,0.02,Wunderground v.1.15,2013-06-18 20:36:00,
2013-06-18 13:41:00,70.4,54.0,29.93,WSW,250,0.0,2.0,56,0.00,,,0.02,Wunderground v.1.15,2013-06-18 20:41:00,
2013-06-18 13:47:00,70.9,53.9,29.93,West,273,2.0,6.0,55,0.00,,,0.02,Wunderground v.1.15,2013-06-18 20:47:00,
2013-06-18 13:53:00,70.8,52.8,29.93,West,265,2.0,5.0,53,0.00,,,0.02,Wunderground v.1.15,2013-06-18 20:53:00,
2013-06-18 13:59:00,70.5,53.6,29.93,WSW,255,2.0,5.0,55,0.00,,,0.02,Wunderground v.1.15,2013-06-18 20:59:00,
2013-06-18 14:04:00,70.3,53.4,29.93,WSW,255,1.0,2.0,55,0.00,,,0.02,Wunderground v.1.15,2013-06-18 21:04:00,
2013-06-18 14:10:00,70.0,54.1,29.93,WSW,255,1.0,3.0,57,0.00,,,0.02,Wunderground v.1.15,2013-06-18 21:10:00,
2013-06-18 14:16:00,70.0,51.0,29.93,WSW,255,0.0,1.0,51,0.00,,,0.02,Wunderground v.1.15,2013-06-18 21:16:00,
2013-06-18 14:21:00,70.2,52.3,29.93,WSW,255,0.0,1.0,53,0.00,,,0.02,Wunderground v.1.15,2013-06-18 21:21:00,
2013-06-18 14:27:00,70.4,51.9,29.93,WNW,295,1.0,7.0,52,0.00,,,0.02,Wunderground v.1.15,2013-06-18 21:27:00,
2013-06-18 14:33:00,70.3,52.4,29.92,NW,306,1.0,1.0,53,0.00,,,0.02,Wunderground v.1.15,2013-06-18 21:33:00,
2013-06-18 14:38:00,70.3,51.3,29.92,West,265,1.0,2.0,51,0.00,,,0.02,Wunderground v.1.15,2013-06-18 21:38:00,
2013-06-18 14:44:00,70.2,52.8,29.92,WSW,254,1.0,2.0,54,0.00,,,0.02,Wunderground v.1.15,2013-06-18 21:44:00,
2013-06-18 14:49:00,70.1,51.1,29.92,WSW,254,1.0,2.0,51,0.00,,,0.02,Wunderground v.1.15,2013-06-18 21:49:00,
2013-06-18 14:55:00,70.4,54.0,29.92,NW,314,1.0,2.0,56,0.00,,,0.02,Wunderground v.1.15,2013-06-18 21:55:00,
2013-06-18 15:00:00,70.6,51.1,29.92,NW,314,0.0,2.0,50,0.00,,,0.02,Wunderground v.1.15,2013-06-18 22:00:00,
2013-06-18 15:06:00,70.3,52.4,29.92,East,90,1.0,7.0,53,0.00,,,0.02,Wunderground v.1.15,2013-06-18 22:06:00,
2013-06-18 15:11:00,69.7,53.8,29.92,ESE,112,2.0,7.0,57,0.00,,,0.02,Wunderground v.1.15,2013-06-18 22:11:00,
2013-06-18 15:17:00,69.1,52.7,29.92,ESE,114,1.0,5.0,56,0.00,,,0.02,Wunderground v.1.15,2013-06-18 22:17:00,
2013-06-18 15:22:00,68.8,54.8,29.92,ESE,114,1.0,4.0,61,0.00,,,0.02,Wunderground v.1.15,2013-06-18 22:22:00,
2013-06-18 15:28:00,68.5,54.1,29.92,ESE,121,2.0,6.0,60,0.00,,,0.02,Wunderground v.1.15,2013-06-18 22:28:00,
2013-06-18 15:34:00,68.3,52.9,29.92,ESE,114,2.0,2.0,58,0.00,,,0.02,Wunderground v.1.15,2013-06-18 22:34:00,
2013-06-18 15:40:00,68.1,52.8,29.91,ESE,103,2.0,5.0,58,0.00,,,0.02,Wunderground v.1.15,2013-06-18 22:40:00,
2013-06-18 15:46:00,68.0,53.1,29.91,East,101,1.0,2.0,59,0.00,,,0.02,Wunderground v.1.15,2013-06-18 22:46:00,
2013-06-18 15:51:00,68.1,52.3,29.91,East,101,1.0,2.0,57,0.00,,,0.02,Wunderground v.1.15,2013-06-18 22:51:00,
2013-06-18 15:56:00,68.2,53.3,29.91,East,90,1.0,2.0,59,0.00,,,0.02,Wunderground v.1.15,2013-06-18 22:56:00,
2013-06-18 16:03:00,68.4,52.1,29.91,East,89,1.0,1.0,56,0.00,,,0.02,Wunderground v.1.15,2013-06-18 23:03:00,
2013-06-18 16:08:00,68.8,53.4,29.91,East,88,1.0,2.0,58,0.00,,,0.02,Wunderground v.1.15,2013-06-18 23:08:00,
2013-06-18 16:13:00,69.0,52.2,29.91,East,88,1.0,3.0,55,0.00,,,0.02,Wunderground v.1.15,2013-06-18 23:13:00,
2013-06-18 16:19:00,69.2,53.3,29.90,ENE,67,1.0,3.0,57,0.00,,,0.02,Wunderground v.1.15,2013-06-18 23:19:00,
2013-06-18 16:24:00,69.7,53.3,29.90,NE,46,1.0,1.0,56,0.00,,,0.02,Wunderground v.1.15,2013-06-18 23:24:00,
2013-06-18 16:30:00,70.0,51.6,29.90,NE,46,1.0,2.0,52,0.00,,,0.02,Wunderground v.1.15,2013-06-18 23:30:00,
2013-06-18 16:35:00,70.2,52.3,29.90,ENE,59,2.0,2.0,53,0.00,,,0.02,Wunderground v.1.15,2013-06-18 23:35:00,
2013-06-18 16:41:00,71.1,53.6,29.90,ENE,57,1.0,2.0,54,0.00,,,0.02,Wunderground v.1.15,2013-06-18 23:41:00,
2013-06-18 16:46:00,71.4,51.8,29.90,ENE,57,0.0,2.0,50,0.00,,,0.02,Wunderground v.1.15,2013-06-18 23:46:00,
2013-06-18 16:52:00,72.0,50.1,29.90,ENE,57,1.0,1.0,46,0.00,,,0.02,Wunderground v.1.15,2013-06-18 23:52:00,
2013-06-18 16:58:00,72.6,50.0,29.90,WNW,296,1.0,1.0,45,0.00,,,0.02,Wunderground v.1.15,2013-06-18 23:58:00,
2013-06-18 17:03:00,73.0,52.7,29.89,WSW,242,2.0,2.0,49,0.00,,,0.02,Wunderground v.1.15,2013-06-19 00:03:00,
2013-06-18 17:08:00,73.0,50.4,29.89,SW,230,3.0,4.0,45,0.00,,,0.02,Wunderground v.1.15,2013-06-19 00:08:00,
2013-06-18 17:13:00,72.9,50.3,29.89,West,275,2.0,2.0,45,0.00,,,0.02,Wunderground v.1.15,2013-06-19 00:13:00,
2013-06-18 17:19:00,72.6,49.4,29.89,WSW,241,2.0,5.0,44,0.00,,,0.02,Wunderground v.1.15,2013-06-19 00:19:00,
2013-06-18 17:24:00,72.0,51.2,29.89,West,259,3.0,5.0,48,0.00,,,0.02,Wunderground v.1.15,2013-06-19 00:24:00,
2013-06-18 17:30:00,71.8,51.6,29.88,WSW,250,2.0,5.0,49,0.00,,,0.02,Wunderground v.1.15,2013-06-19 00:30:00,
2013-06-18 17:35:00,71.7,49.8,29.88,NW,321,1.0,3.0,46,0.00,,,0.02,Wunderground v.1.15,2013-06-19 00:35:00,
2013-06-18 17:40:00,71.7,50.4,29.88,NW,317,1.0,3.0,47,0.00,,,0.02,Wunderground v.1.15,2013-06-19 00:40:00,
2013-06-18 17:46:00,71.5,50.8,29.88,WSW,244,1.0,1.0,48,0.00,,,0.02,Wunderground v.1.15,2013-06-19 00:46:00,
2013-06-18 17:51:00,71.3,48.9,29.88,WNW,302,0.0,2.0,45,0.00,,,0.02,Wunderground v.1.15,2013-06-19 00:51:00,
2013-06-18 17:57:00,71.3,50.0,29.89,West,280,2.0,4.0,47,0.00,,,0.02,Wunderground v.1.15,2013-06-19 00:57:00,
2013-06-18 18:03:00,71.3,49.4,29.89,WSW,246,3.0,3.0,46,0.00,,,0.02,Wunderground v.1.15,2013-06-19 01:03:00,
2013-06-18 18:08:00,71.3,50.6,29.89,West,265,2.0,5.0,48,0.00,,,0.02,Wunderground v.1.15,2013-06-19 01:08:00,
2013-06-18 18:14:00,70.9,49.1,29.89,SW,225,4.0,7.0,46,0.00,,,0.02,Wunderground v.1.15,2013-06-19 01:14:00,
2013-06-18 18:19:00,70.7,50.6,29.89,SW,233,4.0,7.0,49,0.00,,,0.02,Wunderground v.1.15,2013-06-19 01:19:00,
2013-06-18 18:25:00,70.2,49.6,29.89,SW,228,4.0,8.0,48,0.00,,,0.02,Wunderground v.1.15,2013-06-19 01:25:00,
2013-06-18 18:30:00,69.5,48.4,29.89,WSW,246,5.0,8.0,47,0.00,,,0.02,Wunderground v.1.15,2013-06-19 01:30:00,
2013-06-18 18:36:00,68.8,49.4,29.89,West,274,4.0,5.0,50,0.00,,,0.02,Wunderground v.1.15,2013-06-19 01:36:00,
2013-06-18 18:41:00,68.4,49.0,29.89,West,271,4.0,7.0,50,0.00,,,0.02,Wunderground v.1.15,2013-06-19 01:41:00,
2013-06-18 18:46:00,68.0,47.6,29.89,WSW,249,4.0,8.0,48,0.00,,,0.02,Wunderground v.1.15,2013-06-19 01:46:00,
2013-06-18 18:51:00,67.8,50.0,29.89,West,270,4.0,8.0,53,0.00,,,0.02,Wunderground v.1.15,2013-06-19 01:51:00,
2013-06-18 18:57:00,67.3,49.6,29.90,WNW,287,5.0,6.0,53,0.00,,,0.02,Wunderground v.1.15,2013-06-19 01:57:00,
2013-06-18 19:03:00,67.0,50.8,29.90,West,270,6.0,7.0,56,0.00,,,0.02,Wunderground v.1.15,2013-06-19 02:03:00,
2013-06-18 19:08:00,66.7,49.5,29.90,WSW,239,5.0,9.0,54,0.00,,,0.02,Wunderground v.1.15,2013-06-19 02:08:00,
2013-06-18 19:14:00,66.5,49.8,29.90,WNW,291,4.0,5.0,55,0.00,,,0.02,Wunderground v.1.15,2013-06-19 02:14:00,
2013-06-18 19:20:00,66.2,50.5,29.91,West,276,6.0,14.0,57,0.00,,,0.02,Wunderground v.1.15,2013-06-19 02:20:00,
2013-06-18 19:26:00,65.9,49.8,29.90,West,274,6.0,10.0,56,0.00,,,0.02,Wunderground v.1.15,2013-06-19 02:26:00,
2013-06-18 19:31:00,65.6,50.4,29.91,WNW,283,5.0,10.0,58,0.00,,,0.02,Wunderground v.1.15,2013-06-19 02:31:00,
2013-06-18 19:36:00,65.2,50.5,29.91,WSW,257,4.0,8.0,59,0.00,,,0.02,Wunderground v.1.15,2013-06-19 02:36:00,
2013-06-18 19:41:00,65.0,50.3,29.91,SW,228,4.0,8.0,59,0.00,,,0.02,Wunderground v.1.15,2013-06-19 02:41:00,
2013-06-18 19:48:00,64.6,49.0,29.91,WSW,237,5.0,10.0,57,0.00,,,0.02,Wunderground v.1.15,2013-06-19 02:48:00,
2013-06-18 19:53:00,64.3,48.3,29.92,WSW,252,7.0,7.0,56,0.00,,,0.02,Wunderground v.1.15,2013-06-19 02:53:00,
2013-06-18 19:59:00,64.0,48.5,29.92,SW,231,6.0,10.0,57,0.00,,,0.02,Wunderground v.1.15,2013-06-19 02:59:00,
2013-06-18 20:04:00,63.8,48.3,29.92,West,271,6.0,6.0,57,0.00,,,0.02,Wunderground v.1.15,2013-06-19 03:04:00,
2013-06-18 20:10:00,63.6,49.0,29.92,SW,217,4.0,6.0,59,0.00,,,0.02,Wunderground v.1.15,2013-06-19 03:10:00,
2013-06-18 20:15:00,63.4,48.8,29.92,SSW,209,4.0,4.0,59,0.00,,,0.02,Wunderground v.1.15,2013-06-19 03:15:00,
2013-06-18 20:21:00,63.2,49.1,29.93,West,259,3.0,8.0,60,0.00,,,0.02,Wunderground v.1.15,2013-06-19 03:21:00,
2013-06-18 20:26:00,63.2,50.0,29.93,SW,235,5.0,6.0,62,0.00,,,0.02,Wunderground v.1.15,2013-06-19 03:26:00,
2013-06-18 20:33:00,63.0,50.2,29.93,SW,233,5.0,5.0,63,0.00,,,0.02,Wunderground v.1.15,2013-06-19 03:33:00,
2013-06-18 20:38:00,62.8,49.6,29.93,SSW,199,5.0,6.0,62,0.00,,,0.02,Wunderground v.1.15,2013-06-19 03:38:00,
2013-06-18 20:44:00,62.7,50.8,29.93,SW,225,3.0,4.0,65,0.00,,,0.02,Wunderground v.1.15,2013-06-19 03:44:00,
2013-06-18 20:49:00,62.5,51.0,29.93,WSW,248,2.0,7.0,66,0.00,,,0.02,Wunderground v.1.15,2013-06-19 03:49:00,
2013-06-18 20:55:00,62.2,51.1,29.93,SW,229,1.0,6.0,67,0.00,,,0.02,Wunderground v.1.15,2013-06-19 03:55:00,
2013-06-18 21:00:00,62.1,51.8,29.94,SW,219,2.0,6.0,69,0.00,,,0.02,Wunderground v.1.15,2013-06-19 04:00:00,
2013-06-18 21:01:00,62.0,51.3,29.94,SW,219,2.0,6.0,68,0.00,,,0.02,Wunderground v.1.15,2013-06-19 04:01:00,
2013-06-18 21:04:00,61.9,52.0,29.94,SW,227,1.0,3.0,70,0.00,,,0.02,Wunderground v.1.15,2013-06-19 04:04:00,
2013-06-18 21:05:00,61.8,51.9,29.94,SW,227,1.0,3.0,70,0.00,,,0.02,Wunderground v.1.15,2013-06-19 04:05:00,
2013-06-18 21:06:00,61.8,51.9,29.94,SW,227,1.0,3.0,70,0.00,,,0.02,Wunderground v.1.15,2013-06-19 04:06:00,
2013-06-18 21:12:00,61.5,51.6,29.94,WSW,252,0.0,0.0,70,0.00,,,0.02,Wunderground v.1.15,2013-06-19 04:12:00,
2013-06-18 21:18:00,61.2,51.7,29.94,SW,236,1.0,4.0,71,0.00,,,0.02,Wunderground v.1.15,2013-06-19 04:18:00,
2013-06-18 21:23:00,60.8,51.0,29.94,SW,236,0.0,0.0,70,0.00,,,0.02,Wunderground v.1.15,2013-06-19 04:23:00,
2013-06-18 21:28:00,60.5,50.7,29.94,SW,236,0.0,0.0,70,0.00,,,0.02,Wunderground v.1.15,2013-06-19 04:28:00,
2013-06-18 21:34:00,60.3,51.2,29.95,WSW,255,0.0,0.0,72,0.00,,,0.02,Wunderground v.1.15,2013-06-19 04:34:00,
2013-06-18 21:39:00,60.0,51.3,29.95,WSW,255,0.0,0.0,73,0.00,,,0.02,Wunderground v.1.15,2013-06-19 04:39:00,
2013-06-18 21:44:00,59.8,50.8,29.95,WSW,255,0.0,2.0,72,0.00,,,0.02,Wunderground v.1.15,2013-06-19 04:44:00,
2013-06-18 21:50:00,59.6,50.9,29.95,South,191,0.0,3.0,73,0.00,,,0.02,Wunderground v.1.15,2013-06-19 04:50:00,
2013-06-18 21:55:00,59.5,51.2,29.95,SSW,193,1.0,1.0,74,0.00,,,0.02,Wunderground v.1.15,2013-06-19 04:55:00,
2013-06-18 22:01:00,59.3,51.7,29.95,SSW,193,0.0,1.0,76,0.00,,,0.02,Wunderground v.1.15,2013-06-19 05:01:00,
2013-06-18 22:06:00,59.1,51.5,29.95,SSW,193,0.0,0.0,76,0.00,,,0.02,Wunderground v.1.15,2013-06-19 05:06:00,
2013-06-18 22:11:00,59.0,51.4,29.95,SSW,193,0.0,1.0,76,0.00,,,0.02,Wunderground v.1.15,2013-06-19 05:11:00,
2013-06-18 22:16:00,58.8,51.2,29.95,West,268,1.0,3.0,76,0.00,,,0.02,Wunderground v.1.15,2013-06-19 05:16:00,
2013-06-18 22:22:00,58.6,51.4,29.95,SW,223,1.0,5.0,77,0.00,,,0.02,Wunderground v.1.15,2013-06-19 05:22:00,
2013-06-18 22:28:00,58.5,51.7,29.95,SW,235,2.0,3.0,78,0.00,,,0.02,Wunderground v.1.15,2013-06-19 05:28:00,
2013-06-18 22:33:00,58.3,51.5,29.95,WSW,241,2.0,2.0,78,0.00,,,0.02,Wunderground v.1.15,2013-06-19 05:33:00,
2013-06-18 22:38:00,58.2,51.4,29.94,SW,234,3.0,6.0,78,0.00,,,0.02,Wunderground v.1.15,2013-06-19 05:38:00,
2013-06-18 22:44:00,58.0,51.2,29.94,SW,227,3.0,3.0,78,0.00,,,0.02,Wunderground v.1.15,2013-06-19 05:44:00,
2013-06-18 22:50:00,57.8,51.3,29.95,SW,224,3.0,3.0,79,0.00,,,0.02,Wunderground v.1.15,2013-06-19 05:50:00,
2013-06-18 22:55:00,57.6,51.1,29.95,WSW,247,2.0,2.0,79,0.00,,,0.02,Wunderground v.1.15,2013-06-19 05:55:00,
2013-06-18 23:00:00,57.5,51.4,29.95,WSW,247,1.0,2.0,80,0.00,,,0.02,Wunderground v.1.15,2013-06-19 06:00:00,
2013-06-18 23:06:00,57.3,51.2,29.96,WSW,247,0.0,2.0,80,0.00,,,0.02,Wunderground v.1.15,2013-06-19 06:06:00,
2013-06-18 23:11:00,57.2,51.4,29.96,WSW,247,0.0,2.0,81,0.00,,,0.02,Wunderground v.1.15,2013-06-19 06:11:00,
2013-06-18 23:16:00,57.1,51.3,29.96,WSW,247,0.0,0.0,81,0.00,,,0.02,Wunderground v.1.15,2013-06-19 06:16:00,
2013-06-18 23:22:00,56.9,51.5,29.95,WSW,247,0.0,0.0,82,0.00,,,0.02,Wunderground v.1.15,2013-06-19 06:22:00,
2013-06-18 23:27:00,56.8,51.0,29.95,WSW,247,1.0,2.0,81,0.00,,,0.02,Wunderground v.1.15,2013-06-19 06:27:00,
2013-06-18 23:33:00,56.6,50.8,29.95,WSW,247,1.0,3.0,81,0.00,,,0.02,Wunderground v.1.15,2013-06-19 06:33:00,
2013-06-18 23:39:00,56.5,50.7,29.95,SW,232,2.0,3.0,81,0.00,,,0.02,Wunderground v.1.15,2013-06-19 06:39:00,
2013-06-18 23:44:00,56.5,50.7,29.95,SW,232,2.0,3.0,81,0.00,,,0.02,Wunderground v.1.15,2013-06-19 06:44:00,
2013-06-18 23:50:00,56.5,50.7,29.95,SW,229,3.0,7.0,81,0.00,,,0.02,Wunderground v.1.15,2013-06-19 06:50:00,
2013-06-18 23:55:00,56.6,50.8,29.95,SSW,205,4.0,8.0,81,0.00,,,0.02,Wunderground v.1.15,2013-06-19 06:55:00,